Time;durP1;ratioP1;P1;durP2;ratioP2;P2;SDS_P1;SDS_P2;PMS_P1;PMS_P2;Temp;Humidity;BMP_temperature;BMP_pressure;BME280_temperature;BME280_humidity;BME280_pressure;Samples;Min_cycle;Max_cycle;Signal;HPM_P1;HPM_P2
2023/07/22 00:00:05;;;;;;;2.50;1.50;;;23.00;99.90;;;;;;1846601;76;21195;-76
2023/07/22 00:02:55;;;;;;;3.25;1.60;;;23.00;99.90;;;;;;1878424;75;21166;-76
2023/07/22 00:08:25;;;;;;;1.47;1.35;;;22.90;99.90;;;;;;1946240;72;22196;-78
2023/07/22 00:11:16;;;;;;;3.95;1.72;;;22.90;99.90;;;;;;1937986;73;21130;-76
2023/07/22 00:14:07;;;;;;;1.98;1.45;;;22.90;99.90;;;;;;1932594;73;21161;-76
2023/07/22 00:16:58;;;;;;;2.72;1.50;;;22.90;99.90;;;;;;1922939;73;21058;-76
2023/07/22 00:19:49;;;;;;;3.25;1.70;;;22.90;99.90;;;;;;1915943;73;21134;-77
2023/07/22 00:22:41;;;;;;;2.30;1.57;;;22.90;99.90;;;;;;1934728;73;21086;-77
2023/07/22 00:28:11;;;;;;;2.27;1.70;;;22.90;99.90;;;;;;1938589;72;22208;-76
2023/07/22 00:31:05;;;;;;;3.08;1.75;;;22.90;99.90;;;;;;1928050;73;21122;-77
2023/07/22 00:36:34;;;;;;;2.40;1.60;;;22.80;99.90;;;;;;1931951;72;22237;-76
2023/07/22 00:42:08;;;;;;;1.50;1.40;;;22.80;99.90;;;;;;1939638;72;22742;-76
2023/07/22 00:45:00;;;;;;;3.22;1.52;;;22.80;99.90;;;;;;1866074;76;21212;-76
2023/07/22 00:47:52;;;;;;;2.60;1.60;;;22.70;99.90;;;;;;1889304;75;21217;-76
2023/07/22 00:53:23;;;;;;;4.35;1.80;;;22.70;99.90;;;;;;1948984;72;22180;-76
2023/07/22 00:56:14;;;;;;;3.58;1.70;;;22.70;99.90;;;;;;1908115;75;21153;-76
2023/07/22 01:01:49;;;;;;;2.90;1.40;;;22.60;99.90;;;;;;1948695;72;22246;-76
2023/07/22 01:07:21;;;;;;;2.92;1.70;;;22.60;99.90;;;;;;1921038;72;22247;-76
2023/07/22 01:10:14;;;;;;;3.40;1.80;;;22.50;99.90;;;;;;1915913;74;21588;-76
2023/07/22 01:13:06;;;;;;;2.35;1.70;;;22.60;99.90;;;;;;1906915;74;21113;-77
2023/07/22 01:18:37;;;;;;;2.22;1.65;;;22.50;99.90;;;;;;1927236;72;22279;-77
2023/07/22 01:21:30;;;;;;;1.92;1.72;;;22.40;99.90;;;;;;1909621;75;21121;-76
2023/07/22 01:24:22;;;;;;;2.00;1.57;;;22.40;99.90;;;;;;1894117;74;21117;-76
2023/07/22 01:29:54;;;;;;;2.70;1.60;;;22.30;99.90;;;;;;1938260;72;22233;-76
2023/07/22 01:32:45;;;;;;;2.22;1.52;;;22.30;99.90;;;;;;1890314;74;21179;-76
2023/07/22 01:35:37;;;;;;;3.65;1.57;;;22.30;99.90;;;;;;1913238;75;21107;-76
2023/07/22 01:41:07;;;;;;;2.30;1.67;;;22.20;99.90;;;;;;1924798;72;22366;-76
2023/07/22 01:43:59;;;;;;;2.98;1.57;;;22.20;99.90;;;;;;1891180;75;21191;-76
2023/07/22 01:46:54;;;;;;;3.58;1.80;;;22.20;99.90;;;;;;1893018;75;21114;-76
2023/07/22 01:52:25;;;;;;;2.25;1.77;;;22.00;99.90;;;;;;1949927;72;22258;-78
2023/07/22 01:55:16;;;;;;;2.08;1.50;;;22.00;99.90;;;;;;1910977;74;21102;-76
2023/07/22 02:00:47;;;;;;;2.40;1.70;;;22.00;99.90;;;;;;1939542;72;22197;-76
2023/07/22 02:03:39;;;;;;;3.62;1.92;;;22.00;99.90;;;;;;1933122;73;21078;-76
2023/07/22 02:06:30;;;;;;;5.17;1.85;;;21.90;99.90;;;;;;1915884;73;21486;-76
2023/07/22 02:09:22;;;;;;;1.77;1.42;;;21.80;99.90;;;;;;1927707;73;21095;-76
2023/07/22 02:12:13;;;;;;;2.80;1.70;;;21.70;99.90;;;;;;1934193;73;21188;-76
2023/07/22 02:15:06;;;;;;;2.70;1.40;;;21.70;99.90;;;;;;1928566;73;21117;-76
2023/07/22 02:17:57;;;;;;;2.98;1.47;;;21.80;99.90;;;;;;1915733;75;21185;-78
2023/07/22 02:20:50;;;;;;;2.12;1.50;;;21.70;99.90;;;;;;1912139;73;21133;-78
2023/07/22 02:23:44;;;;;;;2.65;1.80;;;21.70;99.90;;;;;;1915406;73;21098;-77
2023/07/22 02:26:37;;;;;;;4.65;1.60;;;21.70;99.90;;;;;;1920189;73;21168;-77
2023/07/22 02:29:30;;;;;;;3.25;1.80;;;21.70;99.90;;;;;;1928095;73;21621;-77
2023/07/22 02:32:21;;;;;;;2.50;1.50;;;21.70;99.90;;;;;;1934834;73;21118;-79
2023/07/22 02:35:13;;;;;;;2.08;1.67;;;21.70;99.90;;;;;;1921006;73;21243;-78
2023/07/22 02:38:04;;;;;;;2.65;1.80;;;21.60;99.90;;;;;;1913809;75;21207;-79
2023/07/22 02:40:56;;;;;;;2.85;1.65;;;21.50;99.90;;;;;;1936939;73;21102;-79
2023/07/22 02:43:49;;;;;;;3.25;1.50;;;21.50;99.90;;;;;;1923626;73;21481;-79
2023/07/22 02:46:41;;;;;;;2.15;1.60;;;21.50;99.90;;;;;;1928900;73;21093;-78
2023/07/22 02:49:32;;;;;;;2.67;1.72;;;21.50;99.90;;;;;;1924573;73;21248;-77
2023/07/22 02:52:23;;;;;;;2.75;1.70;;;21.50;99.90;;;;;;1916703;73;21707;-78
2023/07/22 02:55:18;;;;;;;2.75;1.60;;;21.50;99.90;;;;;;1938970;73;22237;-77
2023/07/22 02:58:09;;;;;;;2.00;1.80;;;21.50;99.90;;;;;;1916595;73;21195;-77
2023/07/22 03:01:01;;;;;;;4.83;2.00;;;21.40;99.90;;;;;;1943255;73;21158;-77
2023/07/22 03:06:31;;;;;;;1.77;1.55;;;21.40;99.90;;;;;;1936262;72;22280;-77
2023/07/22 03:12:02;;;;;;;1.77;1.47;;;21.30;99.90;;;;;;1951791;72;22233;-78
2023/07/22 03:17:32;;;;;;;3.42;1.55;;;21.30;99.90;;;;;;1938492;72;22178;-78
2023/07/22 03:20:24;;;;;;;2.92;1.62;;;21.30;99.90;;;;;;1930592;73;21706;-78
2023/07/22 03:23:16;;;;;;;3.02;1.72;;;21.30;99.90;;;;;;1939933;73;21097;-78
2023/07/22 03:26:08;;;;;;;2.98;1.60;;;21.30;99.90;;;;;;1913828;73;21118;-77
2023/07/22 03:28:59;;;;;;;2.83;1.98;;;21.20;99.90;;;;;;1931375;73;21118;-77
2023/07/22 03:31:54;;;;;;;2.58;1.60;;;21.20;99.90;;;;;;1918260;73;21183;-77
2023/07/22 03:37:24;;;;;;;4.28;2.05;;;21.10;99.90;;;;;;1944768;72;22237;-77
2023/07/22 03:40:19;;;;;;;2.65;1.80;;;20.90;99.90;;;;;;1904641;75;21126;-77
2023/07/22 03:43:09;;;;;;;4.10;1.60;;;20.80;99.90;;;;;;1887848;75;21109;-77
2023/07/22 03:46:00;;;;;;;2.55;1.90;;;20.60;99.90;;;;;;1910642;75;21458;-77
2023/07/22 03:48:51;;;;;;;2.50;1.72;;;20.60;99.90;;;;;;1890668;75;21110;-78
2023/07/22 03:54:22;;;;;;;2.55;1.77;;;20.40;99.90;;;;;;1945657;72;22200;-77
2023/07/22 03:57:14;;;;;;;3.52;1.80;;;20.40;99.90;;;;;;1922459;73;21080;-77
2023/07/22 04:00:10;;;;;;;3.27;1.87;;;20.40;99.90;;;;;;1917386;73;21170;-77
2023/07/22 04:03:03;;;;;;;3.58;2.08;;;20.30;99.90;;;;;;1917389;73;21088;-78
2023/07/22 04:08:36;;;;;;;2.58;1.75;;;20.30;99.90;;;;;;1949396;72;22229;-77
2023/07/22 04:11:28;;;;;;;2.27;1.70;;;20.30;99.90;;;;;;1910381;75;21542;-77
2023/07/22 04:14:19;;;;;;;3.10;1.85;;;20.30;99.90;;;;;;1900408;75;21102;-77
2023/07/22 04:17:11;;;;;;;2.20;1.75;;;20.20;99.90;;;;;;1895653;75;21170;-78
2023/07/22 04:20:03;;;;;;;2.87;2.12;;;20.10;99.90;;;;;;1900445;75;21190;-77
2023/07/22 04:22:56;;;;;;;3.22;1.98;;;20.10;99.90;;;;;;1893500;75;21102;-78
2023/07/22 04:28:28;;;;;;;2.98;2.05;;;20.20;99.90;;;;;;1931681;72;22334;-78
2023/07/22 04:31:20;;;;;;;3.20;2.10;;;20.20;99.90;;;;;;1905344;75;21101;-77
2023/07/22 04:36:50;;;;;;;4.00;2.02;;;20.20;99.90;;;;;;1938627;72;22157;-77
2023/07/22 04:39:41;;;;;;;3.08;1.90;;;20.20;99.90;;;;;;1908649;75;21146;-76
2023/07/22 04:42:33;;;;;;;2.17;1.70;;;20.30;99.90;;;;;;1904587;75;21626;-76
2023/07/22 04:45:26;;;;;;;2.92;1.90;;;20.30;99.90;;;;;;1902665;75;21156;-78
2023/07/22 04:48:19;;;;;;;3.17;2.12;;;20.20;99.90;;;;;;1915179;75;21292;-77
2023/07/22 04:53:50;;;;;;;4.15;2.27;;;20.20;99.90;;;;;;1939536;72;22205;-78
2023/07/22 04:56:41;;;;;;;3.60;2.05;;;20.30;99.90;;;;;;1927710;73;21551;-78
2023/07/22 04:59:33;;;;;;;4.50;1.80;;;20.30;99.90;;;;;;1939809;73;21109;-78
2023/07/22 05:02:24;;;;;;;4.80;1.90;;;20.40;99.90;;;;;;1933808;73;22292;-78
2023/07/22 05:05:16;;;;;;;2.85;1.80;;;20.40;99.90;;;;;;1931070;73;21149;-78
2023/07/22 05:08:08;;;;;;;5.45;1.60;;;20.40;99.90;;;;;;1932253;73;21105;-78
2023/07/22 05:13:39;;;;;;;3.22;2.20;;;20.40;99.90;;;;;;1950213;72;22193;-77
2023/07/22 05:16:30;;;;;;;6.50;2.15;;;20.50;99.90;;;;;;1897372;75;21102;-78
2023/07/22 05:22:02;;;;;;;5.95;1.77;;;20.60;99.90;;;;;;1962997;72;22259;-78
2023/07/22 05:24:53;;;;;;;2.30;1.70;;;20.60;99.90;;;;;;1932625;73;21201;-78
2023/07/22 05:27:44;;;;;;;4.33;1.90;;;20.70;99.90;;;;;;1919498;73;21049;-79
2023/07/22 05:33:15;;;;;;;3.58;2.02;;;20.70;99.90;;;;;;1943572;72;22218;-78
2023/07/22 05:36:06;;;;;;;5.12;2.20;;;20.70;99.90;;;;;;1914379;74;21130;-77
2023/07/22 05:41:38;;;;;;;4.55;1.98;;;20.70;99.90;;;;;;1925626;72;22229;-78
2023/07/22 05:44:31;;;;;;;4.30;2.00;;;20.60;99.90;;;;;;1900924;75;21171;-78
2023/07/22 05:50:01;;;;;;;4.50;2.22;;;20.70;99.90;;;;;;1945405;72;22959;-78
2023/07/22 05:52:52;;;;;;;3.40;1.85;;;20.80;99.90;;;;;;1941791;73;21150;-78
2023/07/22 05:55:43;;;;;;;3.08;2.37;;;20.90;99.90;;;;;;1936060;73;21055;-78
2023/07/22 06:01:14;;;;;;;4.72;1.60;;;20.90;99.90;;;;;;1974015;72;22162;-79
2023/07/22 06:04:06;;;;;;;3.22;1.80;;;20.90;99.90;;;;;;1913185;73;21169;-78
2023/07/22 06:06:57;;;;;;;2.90;1.90;;;21.00;99.90;;;;;;1916378;73;21559;-78
2023/07/22 06:09:49;;;;;;;3.67;1.80;;;21.00;99.90;;;;;;1922082;74;21209;-78
2023/07/22 06:12:41;;;;;;;5.33;2.17;;;21.00;99.90;;;;;;1924212;73;21161;-78
2023/07/22 06:15:32;;;;;;;2.40;1.60;;;21.10;99.90;;;;;;1916471;74;21108;-78
2023/07/22 06:18:24;;;;;;;2.40;1.70;;;21.10;99.90;;;;;;1903528;75;21102;-78
2023/07/22 06:23:53;;;;;;;4.75;2.50;;;21.10;99.90;;;;;;1958438;72;22228;-77
2023/07/22 06:26:45;;;;;;;2.62;1.92;;;21.10;99.90;;;;;;1915068;73;21687;-78
2023/07/22 06:32:15;;;;;;;3.20;1.82;;;21.20;99.90;;;;;;1947979;72;22299;-78
2023/07/22 06:35:07;;;;;;;3.60;1.90;;;21.20;99.90;;;;;;1915290;73;21631;-77
2023/07/22 06:37:59;;;;;;;3.77;1.70;;;21.30;99.90;;;;;;1917692;73;21728;-79
2023/07/22 06:40:52;;;;;;;2.40;1.80;;;21.30;99.90;;;;;;1924082;73;21094;-78
2023/07/22 06:46:26;;;;;;;4.22;2.22;;;21.40;99.90;;;;;;1938414;72;22242;-78
2023/07/22 06:51:57;;;;;;;3.10;1.70;;;21.40;99.90;;;;;;1949847;72;22260;-78
2023/07/22 06:54:48;;;;;;;3.80;1.80;;;21.40;99.90;;;;;;1927880;73;21164;-78
2023/07/22 06:57:39;;;;;;;3.58;2.00;;;21.50;99.90;;;;;;1922032;73;21053;-80
2023/07/22 07:00:30;;;;;;;4.58;1.92;;;21.60;99.90;;;;;;1927117;73;21156;-81
2023/07/22 07:06:03;;;;;;;2.60;1.70;;;21.70;99.90;;;;;;1952732;72;22121;-81
2023/07/22 07:11:33;;;;;;;2.58;1.85;;;21.90;99.90;;;;;;1932017;72;22172;-81
2023/07/22 07:14:24;;;;;;;5.03;2.22;;;21.80;99.90;;;;;;1915608;75;21175;-81
2023/07/22 07:17:16;;;;;;;4.33;2.25;;;21.90;99.90;;;;;;1915919;75;21140;-82
2023/07/22 07:20:10;;;;;;;3.90;1.95;;;22.00;99.90;;;;;;1904387;74;21106;-82
2023/07/22 07:25:42;;;;;;;2.98;2.27;;;22.10;99.90;;;;;;1946219;72;22274;-81
2023/07/22 07:28:34;;;;;;;4.15;1.90;;;22.20;99.90;;;;;;1916143;73;21167;-82
2023/07/22 07:31:25;;;;;;;3.22;2.22;;;22.20;99.90;;;;;;1918312;73;21142;-82
2023/07/22 07:34:16;;;;;;;2.60;2.00;;;22.30;99.90;;;;;;1915775;75;21138;-81
2023/07/22 07:39:51;;;;;;;3.75;2.30;;;22.40;99.90;;;;;;1941420;72;22243;-82
2023/07/22 07:42:42;;;;;;;3.77;2.05;;;22.50;99.90;;;;;;1936013;73;21710;-81
2023/07/22 07:48:14;;;;;;;2.75;2.25;;;22.60;99.90;;;;;;1933764;72;22110;-82
2023/07/22 07:53:46;;;;;;;2.83;2.10;;;22.80;99.90;;;;;;1941239;72;22217;-82
2023/07/22 07:56:37;;;;;;;5.35;2.15;;;22.90;99.90;;;;;;1886150;75;21141;-82
2023/07/22 08:02:13;;;;;;;2.10;1.82;;;23.00;99.90;;;;;;1948944;72;22276;-83
2023/07/22 08:05:05;;;;;;;4.00;2.20;;;23.00;99.90;;;;;;1909935;74;21116;-82
2023/07/22 08:10:36;;;;;;;3.42;2.17;;;23.10;99.90;;;;;;1924947;72;22215;-82
2023/07/22 08:16:10;;;;;;;4.95;2.72;;;23.20;99.90;;;;;;1921935;72;22199;-82
2023/07/22 08:21:46;;;;;;;3.83;2.40;;;23.60;99.90;;;;;;1932157;72;28101;-83
2023/07/22 08:24:38;;;;;;;3.30;2.20;;;23.70;99.90;;;;;;1925929;73;21192;-81
2023/07/22 08:27:29;;;;;;;2.70;2.08;;;23.70;99.90;;;;;;1921703;73;21105;-82
2023/07/22 08:30:22;;;;;;;3.25;2.45;;;23.60;99.90;;;;;;1936489;73;21164;-81
2023/07/22 08:33:13;;;;;;;2.67;1.85;;;23.70;99.90;;;;;;1944691;73;21218;-82
2023/07/22 08:36:07;;;;;;;2.98;1.98;;;23.70;99.90;;;;;;1910659;74;21169;-81
2023/07/22 08:41:40;;;;;;;10.32;9.33;;;23.60;99.90;;;;;;1957087;72;22229;-83
2023/07/22 08:47:13;;;;;;;4.35;2.30;;;23.70;99.90;;;;;;1942052;72;22158;-83
2023/07/22 08:52:50;;;;;;;3.17;2.20;;;23.80;99.90;;;;;;1924787;72;22253;-81
2023/07/22 08:58:23;;;;;;;3.80;2.02;;;24.10;99.90;;;;;;1931835;72;22186;-81
2023/07/22 09:03:56;;;;;;;3.83;2.33;;;24.10;99.90;;;;;;1927617;72;22106;-81
2023/07/22 09:06:49;;;;;;;4.10;2.40;;;24.20;99.90;;;;;;1893856;75;21244;-81
2023/07/22 09:09:41;;;;;;;3.92;2.17;;;24.20;99.90;;;;;;1893289;75;21220;-81
2023/07/22 09:15:14;;;;;;;2.22;2.00;;;24.40;99.90;;;;;;1923675;72;22325;-82
2023/07/22 09:18:06;;;;;;;2.20;1.95;;;24.50;99.90;;;;;;1836159;77;21113;-82
2023/07/22 09:26:19;;;;;;;3.08;1.70;;;24.60;99.90;;;;;;1923605;72;22181;-81
2023/07/22 09:29:11;;;;;;;1.72;1.60;;;24.70;99.90;;;;;;1897614;74;21198;-81
2023/07/22 09:32:04;;;;;;;2.60;1.72;;;24.70;99.90;;;;;;1922860;74;21213;-82
2023/07/22 09:34:57;;;;;;;2.35;1.57;;;24.80;99.90;;;;;;1890138;74;21167;-81
2023/07/22 09:37:49;;;;;;;2.85;1.80;;;24.80;99.90;;;;;;1904531;74;21227;-81
2023/07/22 09:43:19;;;;;;;3.05;1.90;;;25.00;99.90;;;;;;1949509;72;22187;-81
2023/07/22 09:46:12;;;;;;;2.77;1.60;;;25.00;99.90;;;;;;1922491;73;21197;-81
2023/07/22 09:49:06;;;;;;;2.52;1.60;;;24.90;99.90;;;;;;1929237;74;21075;-81
2023/07/22 09:51:58;;;;;;;3.52;1.75;;;25.00;99.90;;;;;;1913683;74;21831;-82
2023/07/22 09:54:51;;;;;;;2.98;1.70;;;25.00;99.90;;;;;;1910043;74;21229;-82
2023/07/22 09:57:46;;;;;;;3.05;1.52;;;25.00;99.90;;;;;;1916389;74;21548;-82
2023/07/22 10:00:52;;;;;;;3.10;1.50;;;25.20;99.90;;;;;;1928607;73;21673;-82
2023/07/22 10:06:28;;;;;;;2.47;1.60;;;25.30;99.90;;;;;;1930496;72;22161;-81
2023/07/22 10:09:22;;;;;;;2.47;1.70;;;25.30;99.90;;;;;;1914918;75;21538;-81
2023/07/22 10:14:54;;;;;;;3.20;1.60;;;25.40;99.90;;;;;;1941500;72;22675;-81
2023/07/22 10:17:46;;;;;;;2.80;1.72;;;25.40;99.90;;;;;;1886247;75;21194;-81
2023/07/22 10:20:38;;;;;;;2.52;1.62;;;25.30;99.90;;;;;;1892520;75;21122;-81
2023/07/22 10:23:30;;;;;;;2.05;1.47;;;25.50;99.90;;;;;;1896053;75;21056;-81
2023/07/22 10:26:22;;;;;;;2.58;1.80;;;25.50;99.90;;;;;;1892909;75;21114;-81
2023/07/22 10:29:16;;;;;;;1.50;1.30;;;25.40;99.90;;;;;;1872063;75;21200;-81
2023/07/22 10:32:08;;;;;;;2.40;1.60;;;25.30;99.90;;;;;;1886899;75;21058;-82
2023/07/22 10:34:59;;;;;;;3.40;1.60;;;25.40;99.90;;;;;;1847969;77;21172;-82
2023/07/22 10:37:53;;;;;;;2.08;1.40;;;25.50;99.90;;;;;;1896425;75;21546;-83
2023/07/22 10:40:48;;;;;;;2.50;1.60;;;25.60;99.90;;;;;;1892788;75;21145;-81
2023/07/22 10:43:40;;;;;;;3.15;1.70;;;25.70;99.90;;;;;;1871322;76;21059;-81
2023/07/22 10:46:36;;;;;;;2.08;1.32;;;25.70;99.90;;;;;;1886447;75;21122;-82
2023/07/22 10:49:31;;;;;;;5.17;1.70;;;26.00;99.90;;;;;;1879688;75;21112;-82
2023/07/22 10:52:43;;;;;;;1.87;1.47;;;26.00;99.90;;;;;;1877811;75;21098;-81
2023/07/22 10:55:34;;;;;;;2.17;1.80;;;26.00;99.90;;;;;;1882119;75;21140;-81
2023/07/22 10:58:26;;;;;;;2.35;1.62;;;26.20;99.90;;;;;;1881487;75;21616;-81
2023/07/22 11:01:38;;;;;;;2.72;1.80;;;26.30;99.90;;;;;;1888697;75;21171;-82
2023/07/22 11:04:35;;;;;;;3.10;1.65;;;26.60;99.90;;;;;;1887881;75;21059;-81
2023/07/22 11:07:35;;;;;;;2.77;1.80;;;26.60;99.90;;;;;;1891302;75;21219;-81
2023/07/22 11:10:29;;;;;;;2.05;1.40;;;26.50;99.90;;;;;;1865911;77;21388;-81
2023/07/22 11:13:21;;;;;;;1.77;1.40;;;26.50;99.90;;;;;;1882024;75;21142;-81
2023/07/22 11:16:14;;;;;;;3.17;1.90;;;26.50;99.90;;;;;;1881998;75;21126;-81
2023/07/22 11:19:06;;;;;;;2.95;2.02;;;26.30;99.50;;;;;;1887102;75;21693;-82
2023/07/22 11:21:58;;;;;;;3.50;1.60;;;26.50;99.70;;;;;;1881709;75;22065;-82
2023/07/22 11:24:49;;;;;;;1.87;1.67;;;26.70;99.90;;;;;;1893342;73;21207;-81
2023/07/22 11:27:41;;;;;;;1.55;1.32;;;26.80;99.40;;;;;;1891719;75;21254;-81
2023/07/22 11:30:33;;;;;;;2.02;1.40;;;26.90;98.20;;;;;;1870556;77;21592;-82
2023/07/22 11:33:25;;;;;;;1.85;1.30;;;27.00;97.90;;;;;;1883293;75;21091;-82
2023/07/22 11:36:16;;;;;;;2.83;1.60;;;27.10;97.60;;;;;;1894913;75;21142;-82
2023/07/22 11:39:10;;;;;;;3.08;1.42;;;27.20;97.60;;;;;;1856329;77;21520;-81
2023/07/22 11:42:04;;;;;;;2.10;1.10;;;27.20;96.70;;;;;;1890912;75;21111;-81
2023/07/22 11:44:55;;;;;;;1.40;1.10;;;27.30;96.20;;;;;;1877706;75;21062;-81
2023/07/22 11:47:47;;;;;;;1.52;1.25;;;27.30;95.00;;;;;;1880882;75;21164;-81
2023/07/22 11:50:38;;;;;;;1.60;1.30;;;27.40;95.10;;;;;;1881317;75;21164;-81
2023/07/22 11:53:30;;;;;;;1.80;1.30;;;27.50;95.10;;;;;;1881157;75;21103;-81
2023/07/22 11:56:23;;;;;;;1.77;1.27;;;27.50;94.20;;;;;;1851042;77;21166;-81
2023/07/22 11:59:14;;;;;;;1.85;1.32;;;27.50;94.00;;;;;;1881826;75;21189;-82
2023/07/22 12:02:07;;;;;;;2.45;1.47;;;27.60;93.90;;;;;;1880994;75;21335;-82
2023/07/22 12:05:00;;;;;;;1.65;1.10;;;27.80;93.10;;;;;;1902086;75;21094;-82
2023/07/22 12:07:52;;;;;;;1.47;1.30;;;27.90;92.80;;;;;;1889045;75;21103;-82
2023/07/22 12:13:27;;;;;;;1.92;1.10;;;27.70;91.60;;;;;;1945081;72;22149;-83
2023/07/22 12:19:11;;;;;;;1.65;1.10;;;28.00;91.40;;;;;;1932728;72;22146;-82
2023/07/22 12:21:56;;;;;;;1.55;1.15;;;27.70;90.90;;;;;;1911155;74;21107;-82
2023/07/22 12:24:50;;;;;;;1.20;0.93;;;27.70;91.00;;;;;;1899335;75;21082;-82
2023/07/22 12:27:41;;;;;;;1.05;0.90;;;27.80;90.30;;;;;;1906522;75;21684;-82
2023/07/22 12:30:33;;;;;;;1.50;1.10;;;27.70;90.30;;;;;;1888381;75;21684;-82
2023/07/22 12:33:25;;;;;;;1.40;1.20;;;27.60;90.30;;;;;;1891227;75;21175;-81
2023/07/22 12:38:56;;;;;;;1.98;1.00;;;27.80;90.10;;;;;;1943962;72;22160;-81
2023/07/22 12:44:26;;;;;;;1.15;0.90;;;27.80;89.60;;;;;;1927078;72;22153;-81
2023/07/22 12:47:17;;;;;;;2.15;1.05;;;27.90;90.00;;;;;;1891002;75;21535;-81
2023/07/22 12:50:10;;;;;;;1.62;0.90;;;28.00;88.50;;;;;;1894915;75;21134;-81
2023/07/22 12:53:03;;;;;;;1.62;1.10;;;28.00;88.40;;;;;;1897566;75;21098;-81
2023/07/22 12:55:55;;;;;;;1.32;1.10;;;28.10;87.60;;;;;;1900426;75;21170;-81
2023/07/22 12:58:46;;;;;;;1.87;0.95;;;28.00;87.30;;;;;;1896515;75;21208;-81
2023/07/22 13:01:41;;;;;;;3.72;1.00;;;28.10;88.40;;;;;;1885655;75;21105;-81
2023/07/22 13:07:11;;;;;;;3.60;1.00;;;28.30;85.70;;;;;;1929993;72;22220;-81
2023/07/22 13:10:06;;;;;;;1.50;1.10;;;28.40;85.10;;;;;;1905519;75;21147;-82
2023/07/22 13:12:56;;;;;;;1.12;0.90;;;28.30;84.90;;;;;;1886047;75;21179;-82
2023/07/22 13:18:29;;;;;;;2.20;1.10;;;28.40;84.40;;;;;;1918617;72;22237;-82
2023/07/22 13:23:59;;;;;;;1.60;1.00;;;28.50;83.40;;;;;;1936351;72;22204;-81
2023/07/22 13:26:51;;;;;;;1.92;1.15;;;28.50;82.20;;;;;;1880748;75;21127;-81
2023/07/22 13:29:42;;;;;;;1.55;1.07;;;28.50;82.80;;;;;;1879997;75;21095;-81
2023/07/22 13:32:33;;;;;;;1.45;1.10;;;28.50;81.40;;;;;;1878082;75;21103;-81
2023/07/22 13:35:27;;;;;;;1.27;1.10;;;28.70;82.00;;;;;;1897790;75;21145;-81
2023/07/22 13:38:19;;;;;;;1.77;1.27;;;28.70;81.10;;;;;;1891827;75;21173;-81
2023/07/22 13:41:10;;;;;;;1.42;1.00;;;28.70;80.50;;;;;;1892520;75;21099;-82
2023/07/22 13:44:01;;;;;;;1.22;0.98;;;28.70;80.30;;;;;;1883583;75;21217;-81
2023/07/22 13:49:32;;;;;;;1.02;0.80;;;28.70;80.20;;;;;;1937345;72;22250;-81
2023/07/22 13:52:23;;;;;;;1.20;1.10;;;28.90;79.90;;;;;;1891092;75;21122;-82
2023/07/22 13:55:15;;;;;;;1.10;1.00;;;29.00;79.20;;;;;;1876761;75;21095;-82
2023/07/22 13:58:06;;;;;;;1.60;1.20;;;29.20;78.60;;;;;;1897285;75;21153;-81
2023/07/22 14:00:58;;;;;;;1.80;1.10;;;29.20;78.40;;;;;;1883822;75;21109;-81
2023/07/22 14:03:51;;;;;;;1.32;1.05;;;29.40;78.00;;;;;;1875875;75;21165;-83
2023/07/22 14:06:42;;;;;;;1.95;1.12;;;29.70;77.60;;;;;;1892948;75;21075;-82
2023/07/22 14:09:34;;;;;;;1.32;1.00;;;29.60;76.50;;;;;;1899449;75;21137;-81
2023/07/22 14:17:50;;;;;;;3.42;1.15;;;30.00;75.40;;;;;;1931213;72;22192;-80
2023/07/22 14:20:41;;;;;;;1.70;1.20;;;30.20;74.70;;;;;;1924297;73;21157;-80
2023/07/22 14:23:33;;;;;;;1.47;1.10;;;30.40;73.80;;;;;;1922988;73;21184;-82
2023/07/22 14:26:25;;;;;;;1.98;1.07;;;30.40;73.50;;;;;;1925872;73;21152;-82
2023/07/22 14:31:58;;;;;;;1.17;1.07;;;30.60;73.40;;;;;;1942982;72;22177;-82
2023/07/22 14:34:50;;;;;;;1.10;0.95;;;30.60;72.10;;;;;;1888325;75;21180;-81
2023/07/22 14:37:41;;;;;;;1.20;1.00;;;30.50;72.10;;;;;;1891890;75;21130;-81
2023/07/22 14:40:32;;;;;;;1.30;0.90;;;30.70;71.20;;;;;;1882655;75;21195;-81
2023/07/22 14:43:24;;;;;;;1.52;1.12;;;30.80;71.30;;;;;;1900071;75;21184;-80
2023/07/22 14:46:17;;;;;;;1.35;1.07;;;30.90;69.70;;;;;;1876727;75;21164;-81
2023/07/22 14:51:49;;;;;;;1.10;1.00;;;31.20;69.70;;;;;;1939572;72;22297;-80
2023/07/22 14:54:40;;;;;;;1.15;0.95;;;31.30;68.90;;;;;;1885234;75;21208;-80
2023/07/22 15:00:12;;;;;;;1.20;1.10;;;31.30;68.40;;;;;;1941204;72;22255;-81
2023/07/22 15:03:04;;;;;;;1.57;1.02;;;31.50;67.70;;;;;;1892518;75;21239;-81
2023/07/22 15:05:55;;;;;;;1.27;0.90;;;31.30;67.90;;;;;;1897241;75;21227;-81
2023/07/22 15:08:47;;;;;;;1.42;1.00;;;31.30;67.80;;;;;;1900726;75;21118;-80
2023/07/22 15:11:39;;;;;;;2.98;1.40;;;31.40;67.70;;;;;;1900750;75;21615;-80
2023/07/22 15:14:30;;;;;;;1.90;1.10;;;31.60;67.80;;;;;;1904215;75;21171;-80
2023/07/22 15:20:01;;;;;;;2.45;1.10;;;31.50;67.50;;;;;;1928415;72;22295;-81
2023/07/22 15:22:52;;;;;;;1.10;0.90;;;31.60;67.80;;;;;;1893544;75;21195;-82
2023/07/22 15:25:43;;;;;;;1.50;0.90;;;31.40;66.80;;;;;;1884528;75;21077;-81
2023/07/22 15:28:35;;;;;;;0.98;0.93;;;31.50;67.00;;;;;;1893018;75;21602;-82
2023/07/22 15:34:06;;;;;;;1.57;1.05;;;31.80;66.40;;;;;;1934990;72;22220;-81
2023/07/22 15:36:57;;;;;;;1.07;0.93;;;31.90;65.80;;;;;;1879941;75;21149;-80
2023/07/22 15:39:48;;;;;;;1.10;1.00;;;31.90;65.30;;;;;;1887202;75;21707;-80
2023/07/22 15:45:22;;;;;;;2.12;1.20;;;31.90;65.60;;;;;;1927942;72;23347;-81
2023/07/22 15:48:14;;;;;;;0.88;0.88;;;32.10;65.50;;;;;;1893333;75;21585;-80
2023/07/22 15:51:06;;;;;;;1.20;0.95;;;31.90;65.00;;;;;;1895934;75;21168;-81
2023/07/22 15:53:57;;;;;;;1.10;1.00;;;31.80;65.00;;;;;;1902261;75;21106;-81
2023/07/22 15:56:48;;;;;;;1.77;1.20;;;31.90;64.70;;;;;;1892002;75;21122;-80
2023/07/22 15:59:42;;;;;;;1.75;1.20;;;32.00;65.00;;;;;;1903780;75;21208;-82
2023/07/22 16:02:33;;;;;;;1.45;0.90;;;32.30;64.40;;;;;;1902599;75;21106;-81
2023/07/22 16:05:25;;;;;;;1.12;1.02;;;32.30;64.40;;;;;;1876442;75;21255;-81
2023/07/22 16:08:17;;;;;;;1.37;0.95;;;32.00;64.30;;;;;;1902410;75;21136;-81
2023/07/22 16:11:08;;;;;;;1.10;0.90;;;32.10;64.00;;;;;;1890860;75;21120;-80
2023/07/22 16:14:00;;;;;;;1.00;0.90;;;32.00;63.70;;;;;;1875604;75;21168;-81
2023/07/22 16:19:36;;;;;;;1.22;1.00;;;32.60;62.60;;;;;;1945212;72;22182;-80
2023/07/22 16:22:28;;;;;;;1.92;0.90;;;32.30;61.80;;;;;;1903940;74;21397;-80
2023/07/22 16:25:21;;;;;;;1.40;0.82;;;32.40;61.90;;;;;;1915930;75;21541;-80
2023/07/22 16:30:51;;;;;;;1.20;1.00;;;32.50;60.20;;;;;;1929866;72;22237;-81
2023/07/22 16:33:43;;;;;;;0.90;0.90;;;32.60;59.40;;;;;;1893060;75;21098;-82
2023/07/22 16:36:34;;;;;;;1.15;1.00;;;32.80;58.00;;;;;;1903259;75;21123;-80
2023/07/22 16:39:25;;;;;;;1.12;1.02;;;33.20;57.50;;;;;;1903396;75;21127;-80
2023/07/22 16:42:17;;;;;;;1.40;1.10;;;33.10;57.90;;;;;;1899502;75;21166;-81
2023/07/22 16:45:10;;;;;;;1.25;1.15;;;33.30;55.90;;;;;;1898200;75;22237;-80
2023/07/22 16:50:54;;;;;;;1.47;1.20;;;33.20;55.70;;;;;;1927179;72;22638;-80
2023/07/22 16:53:45;;;;;;;2.25;1.20;;;33.30;55.00;;;;;;1883951;75;21096;-80
2023/07/22 16:56:37;;;;;;;1.40;1.12;;;33.50;54.50;;;;;;1892755;75;21114;-80
2023/07/22 16:59:28;;;;;;;1.10;1.00;;;33.30;53.70;;;;;;1882089;75;21193;-80
2023/07/22 17:02:20;;;;;;;3.05;1.10;;;33.40;55.20;;;;;;1879862;75;21142;-80
2023/07/22 17:05:11;;;;;;;1.45;1.00;;;33.50;56.00;;;;;;1875218;75;21095;-80
2023/07/22 17:08:03;;;;;;;1.20;1.10;;;33.80;56.50;;;;;;1880120;75;21118;-80
2023/07/22 17:10:54;;;;;;;1.30;1.10;;;33.50;56.60;;;;;;1879193;75;21099;-81
2023/07/22 17:13:46;;;;;;;1.35;1.20;;;33.20;56.90;;;;;;1892387;75;21130;-80
2023/07/22 17:19:21;;;;;;;1.62;0.93;;;32.80;57.50;;;;;;1952992;72;22119;-80
2023/07/22 17:22:15;;;;;;;1.27;1.15;;;32.70;57.30;;;;;;1907387;74;22425;-80
2023/07/22 17:25:08;;;;;;;1.40;1.30;;;32.70;57.50;;;;;;1910705;73;21483;-80
2023/07/22 17:27:59;;;;;;;3.02;1.20;;;32.50;56.70;;;;;;1927485;74;21636;-80
2023/07/22 17:33:29;;;;;;;1.98;1.20;;;32.10;58.50;;;;;;1955764;72;22200;-80
2023/07/22 17:38:59;;;;;;;1.72;1.05;;;31.60;60.80;;;;;;1950852;72;22165;-80
2023/07/22 17:41:51;;;;;;;1.20;1.00;;;31.40;61.80;;;;;;1914748;74;21171;-80
2023/07/22 17:47:25;;;;;;;1.70;1.00;;;30.70;62.90;;;;;;1939546;72;22205;-80
2023/07/22 17:50:17;;;;;;;1.37;1.20;;;30.70;63.30;;;;;;1896722;75;21091;-80
2023/07/22 17:55:51;;;;;;;2.05;1.27;;;30.70;63.30;;;;;;1930949;72;22194;-81
2023/07/22 18:01:22;;;;;;;2.42;1.20;;;30.70;63.80;;;;;;1929659;72;22264;-81
2023/07/22 18:04:14;;;;;;;1.90;1.30;;;30.80;63.80;;;;;;1893298;75;21111;-79
2023/07/22 18:09:46;;;;;;;2.47;1.42;;;30.80;63.40;;;;;;1949789;72;22311;-80
2023/07/22 18:12:37;;;;;;;3.37;1.50;;;31.00;63.30;;;;;;1925485;73;21656;-77
2023/07/22 18:15:29;;;;;;;2.27;1.42;;;31.00;63.50;;;;;;1924746;73;21094;-75
2023/07/22 18:18:20;;;;;;;1.65;1.40;;;30.90;63.80;;;;;;1924712;73;21220;-75
2023/07/22 18:21:11;;;;;;;1.62;1.50;;;30.80;63.80;;;;;;1923989;73;21140;-75
2023/07/22 18:26:41;;;;;;;1.50;1.20;;;29.80;65.00;;;;;;1932252;72;22222;-75